KC5EZZ-2 Weather Reports


Display with metric or nautical units.
time (UTC)temp
F
wind
direction
speed
MPH
gust
MPH
rain 1hr
in
rain 24hr
in
rain mn
in
humidity
%
barometer
mb
20180820130313 72 21 3.0 4.0 0.00 0.04 0.00 86 945.0
20180820125813 71 331 0.0 0.0 0.00 0.04 0.00 87 945.0
20180820123815 71 2 0.0 0.0 0.00 0.04 0.00 86 945.0
20180820122308 70 45 0.0 4.0 0.00 0.04 0.00 86 944.0
20180820115715 71 33 4.0 4.0 0.00 0.04 0.00 85 944.0
20180820114713 71 21 4.0 5.0 0.00 0.04 0.00 85 944.0
20180820113716 71 35 4.0 5.0 0.00 0.04 0.00 85 943.0
20180820112217 71 100 0.0 0.0 0.00 0.04 0.00 84 943.0
20180820105220 71 176 0.0 5.0 0.00 0.04 0.00 84 943.0
20180820104218 71 311 3.0 5.0 0.00 0.04 0.00 84 943.0
20180820101715 71 230 0.0 4.0 0.00 0.04 0.00 83 942.0
20180820094715 71 230 0.0 4.0 0.00 0.04 0.00 83 942.0
20180820094217 71 230 0.0 4.0 0.00 0.04 0.00 83 942.0
20180820090722 71 318 4.0 4.0 0.00 0.04 0.00 81 942.0
20180820090216 71 296 4.0 5.0 0.00 0.04 0.00 81 942.0
20180820085219 72 315 3.0 4.0 0.00 0.04 0.00 80 942.0
20180820084718 72 316 3.0 5.0 0.00 0.04 0.00 79 942.0
20180820084219 72 304 4.0 4.0 0.00 0.04 0.00 78 942.0
20180820083219 72 12 4.0 0.0 0.00 0.04 0.00 77 942.0
20180820082720 72 53 0.0 0.0 0.00 0.04 0.00 76 942.0
20180820074721 73 53 0.0 5.0 0.00 0.04 0.00 76 942.0
20180820074221 73 53 0.0 4.0 0.00 0.04 0.00 75 942.0
20180820073219 73 44 3.0 4.0 0.00 0.04 0.00 74 942.0
20180820072721 73 44 4.0 4.0 0.00 0.04 0.00 74 942.0
20180820064720 74 32 0.0 0.0 0.00 0.04 0.00 71 942.0
20180820063723 74 33 0.0 0.0 0.00 0.04 0.00 68 942.0
20180820063220 74 33 0.0 0.0 0.00 0.04 0.00 68 942.0
20180820062722 74 33 0.0 0.0 0.00 0.04 0.00 67 942.0
20180820060722 75 33 0.0 3.0 0.00 0.04 0.00 65 942.0
20180820060219 75 33 3.0 4.0 0.00 0.04 0.00 64 942.0
20180820055721 75 33 4.0 4.0 0.00 0.04 0.00 64 942.0
20180820053219 76 12 3.0 0.0 0.00 0.04 0.00 61 942.0
20180820051221 77 330 3.0 5.0 0.00 0.04 0.00 58 941.0
20180820050722 77 330 5.0 0.0 0.00 0.04 0.00 57 941.0
20180820045722 78 217 0.0 4.0 0.00 0.00 0.04 56 941.0
20180820045258 79 217 3.0 4.0 0.00 0.00 0.04 56 941.0
20180820045224 79 217 3.0 4.0 0.00 0.00 0.04 56 941.0
20180820044721 79 217 3.0 4.0 0.00 0.00 0.04 56 941.0
20180820044221 79 217 4.0 3.0 0.00 0.00 0.04 55 941.0
20180820043723 79 217 3.0 4.0 0.00 0.00 0.04 55 941.0
20180820043221 79 217 3.0 4.0 0.00 0.00 0.04 54 941.0
20180820042224 80 217 4.0 5.0 0.00 0.00 0.04 53 941.0
20180820041721 80 207 4.0 6.0 0.00 0.00 0.04 52 941.0
20180820041221 80 247 4.0 5.0 0.00 0.00 0.04 52 941.0
20180820040722 80 240 5.0 4.0 0.00 0.00 0.04 52 941.0
20180820035722 80 218 4.0 6.0 0.00 0.00 0.04 51 941.0
20180820035224 80 237 4.0 6.0 0.00 0.00 0.04 51 941.0
20180820034721 80 242 5.0 5.0 0.00 0.00 0.04 50 941.0
20180820034223 81 231 4.0 5.0 0.00 0.00 0.04 49 941.0
20180820033724 81 228 4.0 4.0 0.00 0.00 0.04 49 941.0
20180820033222 81 230 4.0 5.0 0.00 0.00 0.04 48 941.0
20180820032723 81 230 4.0 5.0 0.00 0.00 0.04 49 941.0
20180820032224 81 242 4.0 5.0 0.00 0.00 0.04 49 941.0
20180820031224 81 233 4.0 4.0 0.00 0.00 0.04 47 941.0
20180820030726 81 234 3.0 4.0 0.00 0.00 0.04 47 941.0
20180820030223 82 234 3.0 4.0 0.00 0.00 0.04 46 941.0
20180820023727 83 223 3.0 4.0 0.00 0.00 0.04 44 940.0
20180820023225 83 224 3.0 5.0 0.00 0.00 0.04 43 940.0
20180820022726 84 224 4.0 6.0 0.00 0.00 0.04 42 940.0
20180820021725 84 242 4.0 7.0 0.00 0.00 0.04 41 940.0
20180820021227 85 246 6.0 6.0 0.00 0.00 0.04 41 940.0
20180820020723 85 243 4.0 7.0 0.00 0.00 0.04 41 940.0
20180820020220 85 237 7.0 8.0 0.00 0.00 0.04 40 940.0
20180820015223 86 237 6.0 7.0 0.00 0.00 0.04 40 939.0
20180820014203 86 226 7.0 7.0 0.00 0.00 0.04 39 939.0
20180820011701 88 219 6.0 7.0 0.00 0.00 0.04 35 939.0
20180820005653 90 210 6.0 8.0 0.00 0.00 0.04 31 939.0
20180820004650 91 159 7.0 7.0 0.00 0.00 0.04 30 938.0
20180820004152 91 216 4.0 7.0 0.00 0.00 0.04 30 938.0
20180820003649 92 225 5.0 8.0 0.00 0.00 0.04 29 938.0
20180820000632 95 258 7.0 7.0 0.00 0.00 0.04 27 939.0
20180820000130 95 234 5.0 9.0 0.00 0.00 0.04 27 939.0
20180819235133 96 207 7.0 8.0 0.00 0.00 0.04 26 939.0
20180819234623 96 184 7.0 9.0 0.00 0.00 0.04 26 939.0
20180819232126 97 258 4.0 8.0 0.00 0.00 0.04 26 939.0
20180819231125 97 271 6.0 6.0 0.00 0.00 0.04 25 939.0
20180819230625 98 162 4.0 10.0 0.00 0.00 0.04 23 939.0
20180819223103 105 241 4.0 7.0 0.00 0.00 0.04 18 939.0
20180819222106 104 252 4.0 6.0 0.00 0.00 0.04 19 939.0
20180819221554 102 28 4.0 9.0 0.00 0.00 0.04 21 939.0
20180819220557 100 286 5.0 5.0 0.00 0.00 0.04 23 939.0
20180819220054 100 218 3.0 7.0 0.00 0.00 0.04 24 939.0
20180819215555 101 356 4.0 10.0 0.00 0.00 0.04 24 939.0
20180819214554 100 251 8.0 8.0 0.00 0.00 0.04 25 939.0
20180819214056 99 229 4.0 8.0 0.00 0.00 0.04 25 939.0
20180819213557 97 261 5.0 8.0 0.00 0.00 0.04 27 940.0
20180819212552 97 216 7.0 11.0 0.00 0.00 0.04 26 940.0
20180819211546 99 233 7.0 12.0 0.00 0.00 0.04 25 940.0
20180819210041 99 246 8.0 12.0 0.00 0.00 0.04 25 940.0
20180819205542 101 263 8.0 8.0 0.00 0.00 0.04 25 940.0
20180819202041 98 235 10.0 12.0 0.00 0.00 0.04 27 940.0
20180819194023 99 237 10.0 14.0 0.00 0.00 0.04 29 941.0
20180819193525 96 269 8.0 13.0 0.00 0.00 0.04 32 941.0
20180819193022 95 219 7.0 12.0 0.00 0.00 0.04 36 941.0
20180819192523 95 215 8.0 11.0 0.00 0.00 0.04 33 941.0
20180819192025 96 204 6.0 14.0 0.00 0.00 0.04 33 941.0
20180819191024 90 260 7.0 12.0 0.00 0.00 0.04 42 941.0
20180819190526 89 243 8.0 14.0 0.00 0.00 0.04 42 941.0
20180819185526 89 241 11.0 13.0 0.00 0.00 0.04 40 941.0
20180819185027 90 228 9.0 14.0 0.00 0.00 0.04 40 941.0
20180819184525 90 196 7.0 15.0 0.00 0.00 0.04 40 941.0
20180819184026 91 221 11.0 16.0 0.00 0.00 0.04 37 941.0
20180819183527 94 201 13.0 13.0 0.00 0.00 0.04 34 942.0
20180819183024 94 227 9.0 14.0 0.00 0.00 0.04 36 942.0
20180819181026 93 258 9.0 15.0 0.00 0.00 0.04 38 941.0
20180819180523 92 245 10.0 14.0 0.00 0.00 0.04 39 941.0
20180819180020 90 227 10.0 13.0 0.00 0.00 0.04 43 941.0
20180819175522 88 185 10.0 13.0 0.00 0.00 0.04 45 941.0
20180819175023 87 239 11.0 15.0 0.00 0.00 0.04 45 942.0
20180819174514 87 235 10.0 15.0 0.00 0.00 0.04 46 942.0
20180819172001 82 222 11.0 15.0 0.00 0.00 0.04 57 942.0
20180819170955 82 211 12.0 15.0 0.00 0.00 0.04 57 942.0
20180819170457 82 217 10.0 14.0 0.00 0.00 0.04 57 942.0
20180819165954 82 229 13.0 14.0 0.00 0.00 0.04 56 942.0
20180819165455 82 199 10.0 13.0 0.00 0.00 0.04 57 942.0
20180819163458 81 210 6.0 8.0 0.00 0.00 0.04 61 942.0
20180819155439 79 173 8.0 11.0 0.04 0.00 0.04 67 942.0
20180819154941 79 170 9.0 12.0 0.04 0.00 0.04 68 942.0
20180819154437 79 192 7.0 9.0 0.04 0.00 0.04 74 942.0
20180819153933 78 183 8.0 10.0 0.04 0.00 0.04 76 942.0
20180819153426 77 175 7.0 12.0 0.04 0.00 0.04 78 942.0
20180819152922 76 180 10.0 11.0 0.04 0.00 0.04 80 942.0
20180819151407 76 170 5.0 5.0 0.04 0.00 0.04 81 942.0
20180819150410 76 140 4.0 5.0 0.04 0.00 0.04 80 942.0
20180819144909 76 291 0.0 0.0 0.00 0.00 0.04 74 942.0
20180819144406 76 291 0.0 0.0 0.00 0.00 0.04 73 942.0
20180819143409 77 291 4.0 4.0 0.00 0.00 0.00 70 942.0
20180819141737 78 271 4.0 5.0 0.00 0.00 0.00 65 942.0
20180819140732 80 280 5.0 6.0 0.00 0.00 0.00 57 942.0
20180819134734 81 196 4.0 5.0 0.00 0.00 0.00 54 942.0
20180819133734 81 203 4.0 4.0 0.00 0.00 0.00 56 942.0
20180819131737 80 169 3.0 0.0 0.00 0.00 0.00 57 942.0